Time;durP1;ratioP1;P1;durP2;ratioP2;P2;SDS_P1;SDS_P2;PMS_P1;PMS_P2;Temp;Humidity;BMP_temperature;BMP_pressure;BME280_temperature;BME280_humidity;BME280_pressure;Samples;Min_cycle;Max_cycle;Signal;HPM_P1;HPM_P2
2022/03/01 00:00:33;;;;;;;44.90;20.10;;;;;;;4.28;68.42;102669.94;5096598;28;20349;-46
2022/03/01 00:02:58;;;;;;;51.53;19.23;;;;;;;4.28;67.76;102672.59;5097431;28;20495;-48
2022/03/01 00:05:23;;;;;;;40.20;19.23;;;;;;;4.30;68.22;102678.69;5089320;28;20055;-49
2022/03/01 00:07:49;;;;;;;43.90;19.58;;;;;;;4.31;68.26;102678.59;5094146;28;20490;-46
2022/03/01 00:10:14;;;;;;;40.05;18.75;;;;;;;4.31;68.07;102677.75;5086419;28;20024;-47
2022/03/01 00:12:39;;;;;;;42.08;19.05;;;;;;;4.34;67.93;102682.88;5079532;28;20044;-50
2022/03/01 00:15:06;;;;;;;45.92;20.08;;;;;;;4.29;68.07;102674.31;5096880;28;20044;-47
2022/03/01 00:17:31;;;;;;;47.63;20.25;;;;;;;4.28;69.31;102683.25;5081036;28;20476;-48
2022/03/01 00:19:56;;;;;;;44.72;20.30;;;;;;;4.27;69.60;102676.22;5079832;28;20111;-48
2022/03/01 00:22:22;;;;;;;47.65;19.20;;;;;;;4.24;68.55;102674.63;5099442;28;20264;-49
2022/03/01 00:24:47;;;;;;;46.13;19.98;;;;;;;4.23;69.31;102672.03;5095548;28;20028;-46
2022/03/01 00:27:12;;;;;;;44.28;19.23;;;;;;;4.24;68.88;102666.63;5083709;28;20063;-47
2022/03/01 00:29:38;;;;;;;44.17;20.20;;;;;;;4.20;68.96;102669.56;5085132;28;20032;-47
2022/03/01 00:32:04;;;;;;;42.85;19.90;;;;;;;4.18;69.63;102666.97;5080926;28;20134;-47
2022/03/01 00:34:29;;;;;;;49.08;18.98;;;;;;;4.21;69.32;102671.25;5095944;28;20123;-47
2022/03/01 00:36:54;;;;;;;44.25;19.02;;;;;;;4.26;67.82;102667.34;5088383;28;20106;-49
2022/03/01 00:39:20;;;;;;;47.28;20.98;;;;;;;4.27;68.73;102666.44;5080638;28;20033;-46
2022/03/01 00:41:46;;;;;;;36.20;17.98;;;;;;;4.27;67.92;102668.25;5083788;28;20024;-48
2022/03/01 00:44:12;;;;;;;46.78;19.13;;;;;;;4.28;68.46;102669.94;5091292;28;20036;-47
2022/03/01 00:46:37;;;;;;;41.95;19.08;;;;;;;4.28;68.52;102667.28;5086500;28;20040;-47
2022/03/01 00:49:03;;;;;;;43.67;19.15;;;;;;;4.31;68.85;102675.06;5096113;28;20403;-45
2022/03/01 00:51:28;;;;;;;37.70;19.27;;;;;;;4.34;68.80;102669.53;5095933;28;20020;-48
2022/03/01 00:53:53;;;;;;;46.78;19.02;;;;;;;4.37;68.32;102674.69;5094576;28;20020;-46
2022/03/01 00:56:19;;;;;;;44.08;19.77;;;;;;;4.33;68.98;102667.84;5099864;28;20032;-47
2022/03/01 00:58:44;;;;;;;46.35;19.42;;;;;;;4.30;69.50;102673.38;5099265;28;20106;-46
2022/03/01 01:01:10;;;;;;;43.90;19.63;;;;;;;4.28;69.38;102669.94;5085950;28;20037;-47
2022/03/01 01:03:35;;;;;;;41.30;18.27;;;;;;;4.28;69.25;102667.28;5081554;28;20027;-47
2022/03/01 01:06:00;;;;;;;44.33;20.10;;;;;;;4.28;69.26;102670.78;5093232;28;20538;-47
2022/03/01 01:08:26;;;;;;;45.55;19.58;;;;;;;4.30;70.00;102668.88;5087741;28;20028;-47
2022/03/01 01:10:51;;;;;;;48.08;20.13;;;;;;;4.35;69.18;102676.59;5088261;28;20383;-48
2022/03/01 01:13:17;;;;;;;42.15;19.13;;;;;;;4.39;69.29;102670.97;5081234;28;20372;-47
2022/03/01 01:15:43;;;;;;;42.72;19.90;;;;;;;4.47;69.42;102681.16;5094664;28;20077;-47
2022/03/01 01:18:09;;;;;;;40.60;18.30;;;;;;;4.47;68.83;102670.47;5079877;28;20021;-45
2022/03/01 01:20:34;;;;;;;38.72;17.88;;;;;;;4.49;69.03;102665.91;5096631;28;20027;-49
2022/03/01 01:23:00;;;;;;;42.03;18.42;;;;;;;4.54;69.54;102666.47;5079017;28;20052;-47
2022/03/01 01:25:25;;;;;;;42.20;17.42;;;;;;;4.58;68.01;102668.00;5094432;28;20103;-47
2022/03/01 01:27:56;;;;;;;39.30;17.98;;;;;;;4.61;68.78;102672.28;5097092;28;20664;-48
2022/03/01 01:30:30;;;;;;;46.20;17.73;;;;;;;4.62;67.43;102666.84;5096682;28;20073;-47
2022/03/01 01:32:56;;;;;;;40.15;16.67;;;;;;;4.67;66.57;102671.03;5093291;28;20034;-47
2022/03/01 01:35:24;;;;;;;40.63;18.45;;;;;;;4.73;66.58;102662.63;5096520;28;20470;-47
2022/03/01 01:37:50;;;;;;;37.38;17.00;;;;;;;4.76;67.36;102659.75;5077998;28;20033;-46
2022/03/01 01:40:22;;;;;;;36.25;17.42;;;;;;;4.78;67.17;102660.53;5091839;28;20028;-46
2022/03/01 01:42:48;;;;;;;35.35;17.55;;;;;;;4.77;66.87;102661.50;5094357;28;20033;-46
2022/03/01 01:45:13;;;;;;;40.42;16.85;;;;;;;4.78;65.98;102657.84;5090525;28;20025;-46
2022/03/01 01:47:39;;;;;;;36.42;16.02;;;;;;;4.78;65.30;102658.72;5091875;28;20123;-49
2022/03/01 01:50:06;;;;;;;36.85;16.33;;;;;;;4.84;65.95;102655.66;5077495;28;20407;-47
2022/03/01 01:52:32;;;;;;;41.47;18.13;;;;;;;4.90;66.63;102666.84;5084182;28;20043;-47
2022/03/01 01:54:57;;;;;;;34.85;17.17;;;;;;;4.82;65.62;102646.03;5085499;28;20020;-47
2022/03/01 01:57:24;;;;;;;37.85;17.70;;;;;;;4.76;66.51;102647.28;5078686;28;20395;-47
2022/03/01 01:59:50;;;;;;;35.70;17.15;;;;;;;4.71;66.65;102651.19;5089493;28;20024;-46
2022/03/01 02:02:18;;;;;;;38.50;17.63;;;;;;;4.68;66.02;102643.41;5079709;28;20024;-47
2022/03/01 02:04:44;;;;;;;35.15;16.60;;;;;;;4.71;66.01;102635.19;5078893;28;20102;-46
2022/03/01 02:07:10;;;;;;;34.75;16.98;;;;;;;4.71;65.89;102640.53;5089197;28;20459;-46
2022/03/01 02:09:35;;;;;;;40.63;16.48;;;;;;;4.72;65.84;102637.78;5080128;28;20463;-47
2022/03/01 02:12:02;;;;;;;38.97;17.15;;;;;;;4.72;65.83;102632.44;5078274;28;20044;-47
2022/03/01 02:14:29;;;;;;;38.33;17.95;;;;;;;4.76;64.59;102635.75;5086114;28;20032;-48
2022/03/01 02:16:54;;;;;;;35.45;17.08;;;;;;;4.78;63.88;102641.84;5088811;28;20052;-49
2022/03/01 02:19:20;;;;;;;36.72;16.85;;;;;;;4.78;64.78;102641.84;5079274;28;20020;-47
2022/03/01 02:21:46;;;;;;;40.15;17.08;;;;;;;4.78;64.60;102639.19;5083215;28;20058;-47
2022/03/01 02:24:11;;;;;;;35.70;18.50;;;;;;;4.77;65.31;102635.66;5093483;28;20036;-48
2022/03/01 02:26:36;;;;;;;33.83;16.98;;;;;;;4.74;66.32;102627.00;5078957;28;20025;-47
2022/03/01 02:29:02;;;;;;;39.30;17.02;;;;;;;4.67;66.23;102633.69;5088666;28;20469;-48
2022/03/01 02:31:27;;;;;;;38.22;17.73;;;;;;;4.60;66.23;102627.88;5083108;28;20553;-48
2022/03/01 02:33:52;;;;;;;40.35;19.52;;;;;;;4.56;66.13;102621.06;5082901;28;20048;-48
2022/03/01 02:36:18;;;;;;;37.78;17.35;;;;;;;4.55;65.79;102630.00;5090566;28;20052;-45
2022/03/01 02:38:43;;;;;;;36.20;16.63;;;;;;;4.56;65.24;102621.06;5091655;28;20062;-47
2022/03/01 02:41:08;;;;;;;38.03;16.50;;;;;;;4.56;65.82;102635.25;5086001;28;20070;-48
2022/03/01 02:43:34;;;;;;;35.67;17.55;;;;;;;4.60;66.57;102639.41;5079787;28;20534;-47
2022/03/01 02:45:59;;;;;;;33.47;16.85;;;;;;;4.58;67.14;102630.69;5075865;28;20484;-46
2022/03/01 02:48:24;;;;;;;31.02;17.40;;;;;;;4.66;66.66;102629.31;5083601;28;20040;-48
2022/03/01 02:50:49;;;;;;;41.22;17.42;;;;;;;4.66;67.48;102630.19;5079076;28;20028;-47
2022/03/01 02:53:15;;;;;;;36.38;18.25;;;;;;;4.60;66.81;102628.75;5079135;28;20024;-47
2022/03/01 02:55:40;;;;;;;34.28;18.05;;;;;;;4.58;67.54;102620.00;5096281;28;20440;-47
2022/03/01 02:58:06;;;;;;;39.05;17.23;;;;;;;4.68;66.69;102614.91;5084714;28;20036;-47
2022/03/01 03:00:31;;;;;;;40.17;18.20;;;;;;;4.76;65.09;102622.41;5089942;28;20047;-47
2022/03/01 03:02:56;;;;;;;43.63;18.10;;;;;;;4.70;65.31;102622.81;5083504;28;20031;-47
2022/03/01 03:05:25;;;;;;;43.47;17.30;;;;;;;4.65;65.20;102630.28;5074154;28;20036;-47
2022/03/01 03:07:50;;;;;;;42.28;18.48;;;;;;;4.60;66.60;102631.41;5077737;28;20037;-47
2022/03/01 03:10:16;;;;;;;43.30;18.40;;;;;;;4.58;65.34;102638.69;5092281;28;20032;-47
2022/03/01 03:12:42;;;;;;;36.42;18.15;;;;;;;4.65;65.38;102640.94;5094571;28;20028;-47
2022/03/01 03:15:08;;;;;;;33.70;17.77;;;;;;;4.64;65.81;102633.91;5098401;28;20042;-47
2022/03/01 03:17:33;;;;;;;44.40;18.40;;;;;;;4.69;65.55;102637.13;5084524;28;20097;-47
2022/03/01 03:19:58;;;;;;;34.55;18.30;;;;;;;4.72;66.24;102645.78;5079733;28;20097;-48
2022/03/01 03:22:24;;;;;;;38.88;17.70;;;;;;;4.78;65.54;102641.84;5097442;28;20077;-47
2022/03/01 03:24:49;;;;;;;38.08;17.65;;;;;;;4.82;65.11;102638.03;5084969;28;20040;-47
2022/03/01 03:27:15;;;;;;;35.08;17.98;;;;;;;4.82;64.93;102643.38;5094535;28;20033;-47
2022/03/01 03:29:40;;;;;;;39.22;18.73;;;;;;;4.84;64.69;102636.09;5095640;28;20188;-47
2022/03/01 03:32:07;;;;;;;41.40;17.83;;;;;;;4.82;64.07;102632.72;5089115;28;20037;-46
2022/03/01 03:34:32;;;;;;;43.53;18.42;;;;;;;4.88;64.18;102626.97;5089802;28;20376;-47
2022/03/01 03:36:57;;;;;;;35.88;16.88;;;;;;;4.92;64.10;102622.25;5085794;28;20040;-46
2022/03/01 03:39:23;;;;;;;38.30;18.00;;;;;;;4.92;64.02;102625.78;5092849;28;20371;-49
2022/03/01 03:41:48;;;;;;;45.38;19.17;;;;;;;4.87;64.15;102633.25;5083666;28;20107;-49
2022/03/01 03:44:14;;;;;;;38.03;17.55;;;;;;;4.95;64.28;102628.28;5087313;28;20047;-47
2022/03/01 03:46:39;;;;;;;41.72;18.65;;;;;;;4.98;64.69;102636.06;5093327;28;20086;-47
2022/03/01 03:49:04;;;;;;;35.92;17.67;;;;;;;5.01;64.34;102638.53;5088461;28;20103;-47
2022/03/01 03:51:30;;;;;;;39.97;17.95;;;;;;;4.99;64.36;102629.75;5095917;28;20031;-47
2022/03/01 03:53:55;;;;;;;40.80;18.38;;;;;;;5.05;63.98;102629.38;5082974;28;20138;-46
2022/03/01 03:56:22;;;;;;;37.60;16.60;;;;;;;5.10;63.27;102633.53;5098319;28;20060;-47
2022/03/01 03:58:47;;;;;;;35.97;16.88;;;;;;;5.14;62.96;102632.38;5094024;28;20021;-47
2022/03/01 04:01:13;;;;;;;39.75;17.85;;;;;;;5.08;62.90;102614.94;5080642;28;20040;-47
2022/03/01 04:03:38;;;;;;;36.92;17.90;;;;;;;5.06;62.92;102623.06;5079919;28;20052;-48
2022/03/01 04:06:04;;;;;;;39.83;18.17;;;;;;;5.08;63.41;102625.63;5079360;28;20040;-46
2022/03/01 04:08:30;;;;;;;39.13;17.08;;;;;;;4.98;63.50;102617.41;5079451;28;20041;-47
2022/03/01 04:10:56;;;;;;;36.70;18.05;;;;;;;5.00;63.57;102611.94;5077994;28;20373;-46
2022/03/01 04:13:23;;;;;;;34.95;17.85;;;;;;;5.02;63.46;102608.22;5081948;28;20040;-47
2022/03/01 04:15:48;;;;;;;42.40;18.58;;;;;;;4.97;63.46;102613.00;5097708;28;20076;-48
2022/03/01 04:18:14;;;;;;;42.00;19.67;;;;;;;4.92;63.56;102616.94;5098638;28;20028;-47
2022/03/01 04:20:39;;;;;;;41.08;18.50;;;;;;;4.96;63.35;102619.31;5093708;28;20035;-49
2022/03/01 04:23:05;;;;;;;46.25;18.55;;;;;;;4.99;63.23;102619.09;5078776;28;20035;-47
2022/03/01 04:25:30;;;;;;;38.40;18.20;;;;;;;5.07;63.24;102615.91;5096025;28;20039;-47
2022/03/01 04:27:56;;;;;;;40.22;17.95;;;;;;;5.06;63.49;102608.88;5090202;28;20028;-47
2022/03/01 04:30:21;;;;;;;36.38;18.13;;;;;;;5.18;62.79;102612.53;5100121;28;20035;-47
2022/03/01 04:32:46;;;;;;;39.38;18.48;;;;;;;5.11;62.67;102612.09;5097563;28;20384;-46
2022/03/01 04:35:12;;;;;;;41.03;19.42;;;;;;;5.15;62.27;102604.72;5079664;28;20368;-47
2022/03/01 04:37:39;;;;;;;40.22;17.95;;;;;;;5.13;62.38;102611.97;5080187;28;20017;-47
2022/03/01 04:40:05;;;;;;;37.78;17.67;;;;;;;5.15;62.52;102620.75;5085451;28;20043;-47
2022/03/01 04:42:31;;;;;;;44.78;19.98;;;;;;;5.10;62.76;102610.38;5096635;28;20050;-47
2022/03/01 04:44:56;;;;;;;39.28;18.48;;;;;;;5.07;62.85;102618.59;5081180;28;20032;-47
2022/03/01 04:47:22;;;;;;;38.53;18.30;;;;;;;5.04;62.60;102616.97;5081151;28;20451;-47
2022/03/01 04:49:47;;;;;;;37.78;17.88;;;;;;;5.13;61.89;102617.31;5086038;28;20033;-46
2022/03/01 04:52:13;;;;;;;39.53;18.95;;;;;;;5.02;62.16;102610.88;5077632;28;20035;-46
2022/03/01 04:54:38;;;;;;;38.30;18.55;;;;;;;5.04;62.98;102608.13;5088139;28;20059;-47
2022/03/01 04:57:03;;;;;;;41.03;18.23;;;;;;;5.02;63.00;102618.03;5096880;28;20055;-47
2022/03/01 04:59:29;;;;;;;41.70;18.75;;;;;;;5.03;62.74;102612.59;5083040;28;20035;-48
2022/03/01 05:01:54;;;;;;;40.40;18.92;;;;;;;5.09;62.57;102607.81;5082071;28;20392;-46
2022/03/01 05:04:19;;;;;;;49.53;19.20;;;;;;;5.05;62.82;102605.34;5095549;28;20127;-46
2022/03/01 05:06:45;;;;;;;46.67;19.67;;;;;;;5.06;62.64;102601.72;5094241;28;20107;-48
2022/03/01 05:09:12;;;;;;;39.55;19.13;;;;;;;5.10;62.98;102593.50;5079610;28;20040;-47
2022/03/01 05:11:37;;;;;;;37.42;18.50;;;;;;;5.10;63.27;102593.50;5090642;28;20479;-46
2022/03/01 05:14:03;;;;;;;37.22;17.90;;;;;;;5.14;63.23;102595.03;5084671;28;20044;-46
2022/03/01 05:16:28;;;;;;;38.78;17.65;;;;;;;5.15;62.81;102594.06;5079015;28;20091;-46
2022/03/01 05:18:53;;;;;;;41.33;18.83;;;;;;;5.18;63.06;102597.34;5077138;28;20036;-47
2022/03/01 05:21:19;;;;;;;39.95;18.65;;;;;;;5.21;63.66;102598.97;5075438;28;20116;-46
2022/03/01 05:23:44;;;;;;;40.88;18.35;;;;;;;5.22;64.11;102598.88;5082961;28;20020;-47
2022/03/01 05:26:09;;;;;;;40.88;18.92;;;;;;;5.23;64.00;102599.72;5093011;28;20039;-47
2022/03/01 05:28:35;;;;;;;40.05;18.58;;;;;;;5.20;63.79;102586.59;5075520;28;20061;-47
2022/03/01 05:31:00;;;;;;;38.78;17.83;;;;;;;5.24;63.53;102596.97;5080011;28;20036;-47
2022/03/01 05:33:25;;;;;;;39.60;18.60;;;;;;;5.18;63.07;102593.84;5094368;28;20032;-47
2022/03/01 05:35:51;;;;;;;38.92;17.83;;;;;;;5.21;62.76;102597.19;5091409;28;20178;-46
2022/03/01 05:38:17;;;;;;;40.80;18.45;;;;;;;5.20;62.52;102599.94;5092393;28;20044;-47
2022/03/01 05:40:42;;;;;;;36.85;17.98;;;;;;;5.20;63.36;102592.78;5087511;28;20039;-47
2022/03/01 05:43:08;;;;;;;38.75;17.63;;;;;;;5.21;64.42;102607.84;5080263;28;20028;-47
2022/03/01 05:45:34;;;;;;;34.90;18.30;;;;;;;5.20;64.12;102602.59;5081709;28;20077;-47
2022/03/01 05:48:00;;;;;;;39.45;18.15;;;;;;;5.22;64.28;102606.03;5088418;28;20043;-47
2022/03/01 05:50:26;;;;;;;38.90;18.33;;;;;;;5.26;65.03;102610.19;5085974;28;20047;-46
2022/03/01 05:52:52;;;;;;;36.97;18.33;;;;;;;5.27;64.72;102606.56;5086333;28;20686;-46
2022/03/01 05:55:17;;;;;;;44.42;18.40;;;;;;;5.36;63.85;102603.25;5078464;28;20101;-48
2022/03/01 05:57:43;;;;;;;46.45;19.33;;;;;;;5.40;64.04;102596.78;5085470;28;20481;-45
2022/03/01 06:00:14;;;;;;;49.13;18.33;;;;;;;5.45;62.34;102599.97;5076192;28;20036;-46
2022/03/01 06:02:40;;;;;;;36.75;17.52;;;;;;;5.47;62.05;102587.34;5091083;28;20032;-46
2022/03/01 06:05:06;;;;;;;40.95;18.42;;;;;;;5.43;61.90;102595.72;5091543;28;20031;-46
2022/03/01 06:07:31;;;;;;;48.25;19.05;;;;;;;5.39;62.62;102600.38;5073810;28;20391;-49
2022/03/01 06:09:56;;;;;;;44.08;18.27;;;;;;;5.45;62.17;102599.09;5087149;28;20020;-47
2022/03/01 06:12:22;;;;;;;41.47;17.20;;;;;;;5.47;62.39;102590.03;5083240;28;20082;-48
2022/03/01 06:14:47;;;;;;;39.38;19.17;;;;;;;5.34;61.87;102585.63;5091856;28;20066;-47
2022/03/01 06:17:12;;;;;;;45.50;18.77;;;;;;;5.41;62.53;102587.78;5073894;28;20040;-47
2022/03/01 06:19:38;;;;;;;42.53;18.60;;;;;;;5.44;62.80;102592.91;5081226;28;20074;-47
2022/03/01 06:22:05;;;;;;;37.08;19.00;;;;;;;5.42;62.62;102597.50;5094785;28;20031;-48
2022/03/01 06:24:30;;;;;;;34.03;17.52;;;;;;;5.43;63.04;102601.06;5087351;28;20543;-46
2022/03/01 06:26:56;;;;;;;45.65;17.98;;;;;;;5.43;63.04;102604.56;5080131;28;20097;-47
2022/03/01 06:29:21;;;;;;;47.90;18.88;;;;;;;5.39;63.92;102607.53;5074559;28;20042;-46
2022/03/01 06:31:47;;;;;;;42.00;18.58;;;;;;;5.37;63.42;102609.47;5075982;28;20027;-48
2022/03/01 06:34:12;;;;;;;42.15;19.17;;;;;;;5.36;64.02;102611.28;5089261;28;20083;-47
2022/03/01 06:36:37;;;;;;;43.33;17.95;;;;;;;5.40;64.68;102618.13;5074897;28;20504;-48
2022/03/01 06:39:03;;;;;;;45.20;18.35;;;;;;;5.39;64.31;102611.06;5080732;28;20153;-46
2022/03/01 06:41:28;;;;;;;38.33;17.77;;;;;;;5.46;64.69;102612.38;5080868;28;20065;-47
2022/03/01 06:43:54;;;;;;;38.53;18.02;;;;;;;5.50;64.14;102621.88;5091429;28;20031;-48
2022/03/01 06:46:20;;;;;;;46.08;18.95;;;;;;;5.50;64.98;102629.91;5077021;28;20060;-47
2022/03/01 06:48:46;;;;;;;44.85;19.40;;;;;;;5.54;63.34;102629.69;5080474;28;20027;-48
2022/03/01 06:51:11;;;;;;;47.30;18.45;;;;;;;5.65;63.81;102616.44;5077204;28;20050;-47
2022/03/01 06:53:37;;;;;;;43.25;18.33;;;;;;;5.64;63.29;102622.75;5093686;28;20515;-47
2022/03/01 06:56:03;;;;;;;37.35;18.58;;;;;;;5.59;63.27;102633.75;5093565;28;20475;-49
2022/03/01 06:58:29;;;;;;;36.88;17.65;;;;;;;5.50;63.37;102635.25;5092261;28;20131;-47
2022/03/01 07:00:56;;;;;;;40.67;18.27;;;;;;;5.55;63.80;102639.41;5075300;28;20474;-46
2022/03/01 07:03:22;;;;;;;32.65;16.58;;;;;;;5.52;63.80;102647.63;5073869;28;20570;-47
2022/03/01 07:05:47;;;;;;;40.88;17.83;;;;;;;5.55;63.42;102642.91;5073980;28;20029;-47
2022/03/01 07:08:13;;;;;;;49.40;18.48;;;;;;;5.53;63.53;102654.66;5073469;28;20032;-49
2022/03/01 07:10:40;;;;;;;36.03;18.70;;;;;;;5.42;63.36;102653.56;5074160;28;20101;-49
2022/03/01 07:13:06;;;;;;;43.67;18.70;;;;;;;5.48;63.76;102650.50;5074063;28;20028;-48
2022/03/01 07:15:33;;;;;;;40.63;18.67;;;;;;;5.58;63.66;102645.41;5073192;28;20029;-47
2022/03/01 07:17:59;;;;;;;49.35;19.08;;;;;;;5.69;63.78;102652.69;5073099;28;20395;-48
2022/03/01 07:20:24;;;;;;;47.30;17.95;;;;;;;5.77;63.71;102642.31;5085380;28;20024;-47
2022/03/01 07:22:49;;;;;;;39.05;18.73;;;;;;;5.75;63.69;102652.25;5093181;28;20024;-46
2022/03/01 07:25:15;;;;;;;39.33;16.67;;;;;;;5.81;63.08;102650.97;5093734;28;20047;-48
2022/03/01 07:27:51;;;;;;;47.75;18.60;;;;;;;5.87;62.49;102658.53;5090805;28;20107;-48
2022/03/01 07:30:24;;;;;;;41.13;18.75;;;;;;;5.83;62.88;102657.91;5073129;28;20063;-47
2022/03/01 07:32:52;;;;;;;52.92;18.95;;;;;;;5.79;62.85;102668.91;5089486;28;20024;-48
2022/03/01 07:35:18;;;;;;;42.60;18.17;;;;;;;5.72;62.61;102671.16;5093398;28;20020;-48
2022/03/01 07:37:44;;;;;;;34.15;17.10;;;;;;;5.71;62.81;102666.75;5088524;28;20021;-47
2022/03/01 07:40:11;;;;;;;40.35;17.50;;;;;;;5.77;62.90;102666.34;5112757;28;20030;-48
2022/03/01 07:42:37;;;;;;;43.87;18.17;;;;;;;5.77;63.11;102674.38;5107358;28;20040;-47
2022/03/01 07:45:03;;;;;;;34.25;17.25;;;;;;;5.84;63.59;102674.78;5073046;28;20336;-48
2022/03/01 07:47:29;;;;;;;37.17;17.55;;;;;;;5.81;63.04;102672.34;5083248;28;20093;-47
2022/03/01 07:49:54;;;;;;;36.33;18.35;;;;;;;5.85;64.00;102680.03;5091909;28;20475;-47
2022/03/01 07:52:20;;;;;;;38.30;18.75;;;;;;;5.90;63.96;102680.56;5087244;28;20021;-48
2022/03/01 07:54:45;;;;;;;42.25;19.20;;;;;;;5.86;63.81;102675.53;5092506;28;20046;-48
2022/03/01 07:57:10;;;;;;;43.17;18.35;;;;;;;5.83;63.87;102684.63;5092817;28;20055;-48
2022/03/01 07:59:36;;;;;;;40.83;18.45;;;;;;;5.85;64.81;102685.38;5091635;28;20483;-49
2022/03/01 08:02:02;;;;;;;37.03;17.58;;;;;;;5.86;64.58;102689.75;5081885;28;20028;-47
2022/03/01 08:04:27;;;;;;;36.67;18.42;;;;;;;5.80;64.26;102681.31;5076964;28;20024;-49
2022/03/01 08:06:52;;;;;;;39.63;17.75;;;;;;;5.89;65.22;102686.00;5078183;28;20066;-48
2022/03/01 08:09:18;;;;;;;36.28;19.75;;;;;;;5.98;66.15;102698.78;5078579;28;20074;-47
2022/03/01 08:11:43;;;;;;;39.50;18.88;;;;;;;5.87;65.76;102695.94;5083765;28;20103;-48
2022/03/01 08:14:08;;;;;;;40.53;19.38;;;;;;;5.79;66.68;102698.28;5094155;28;20028;-48
2022/03/01 08:16:34;;;;;;;45.20;19.73;;;;;;;5.69;68.56;102693.59;5083750;28;20039;-47
2022/03/01 08:18:59;;;;;;;48.58;20.55;;;;;;;5.67;69.47;102710.69;5080328;28;20039;-47
2022/03/01 08:21:25;;;;;;;41.83;18.92;;;;;;;5.59;69.96;102707.69;5080260;28;20029;-47
2022/03/01 08:23:50;;;;;;;40.58;19.20;;;;;;;5.48;68.96;102713.75;5081521;28;20071;-46
2022/03/01 08:26:15;;;;;;;38.97;19.38;;;;;;;5.56;70.76;102707.91;5099382;28;20479;-49
2022/03/01 08:28:41;;;;;;;36.00;18.75;;;;;;;5.51;69.95;102710.88;5100890;28;20024;-49
2022/03/01 08:31:06;;;;;;;43.63;18.27;;;;;;;5.45;71.73;102701.47;5094032;28;20066;-49
2022/03/01 08:33:33;;;;;;;46.22;19.42;;;;;;;5.52;72.15;102723.25;5093924;28;20028;-51
2022/03/01 08:35:58;;;;;;;40.70;19.75;;;;;;;5.53;73.13;102716.09;5077719;28;20464;-50
2022/03/01 08:38:25;;;;;;;34.78;18.48;;;;;;;5.57;73.79;102720.28;5074779;28;20036;-49
2022/03/01 08:40:50;;;;;;;52.17;20.23;;;;;;;5.64;73.82;102718.91;5074651;28;20467;-50
2022/03/01 08:43:16;;;;;;;40.05;19.95;;;;;;;5.71;73.68;102707.72;5080116;28;20111;-49
2022/03/01 08:45:42;;;;;;;51.65;20.98;;;;;;;5.72;73.94;102713.91;5068677;28;20115;-49
2022/03/01 08:48:07;;;;;;;38.67;19.33;;;;;;;5.62;72.44;102707.47;5075256;28;20123;-51
2022/03/01 08:50:34;;;;;;;40.00;21.15;;;;;;;5.68;73.67;102707.03;5075201;28;20028;-50
2022/03/01 08:53:00;;;;;;;40.45;20.42;;;;;;;5.84;74.55;102714.88;5075250;28;20016;-48
2022/03/01 08:55:26;;;;;;;36.30;18.65;;;;;;;5.73;72.38;102726.28;5075979;28;20028;-48
2022/03/01 08:57:51;;;;;;;40.50;19.35;;;;;;;5.65;71.93;102728.63;5077530;28;20166;-50
2022/03/01 09:00:17;;;;;;;40.35;19.88;;;;;;;5.68;73.04;102728.41;5083024;28;20480;-47
2022/03/01 09:02:42;;;;;;;41.20;21.38;;;;;;;5.73;74.90;102731.63;5078957;28;20036;-48
2022/03/01 09:05:08;;;;;;;45.42;21.33;;;;;;;5.91;75.06;102737.53;5075502;28;20020;-50
2022/03/01 09:07:34;;;;;;;40.90;20.63;;;;;;;5.90;74.76;102738.53;5090876;28;20036;-49
2022/03/01 09:10:00;;;;;;;45.10;20.45;;;;;;;5.87;75.02;102736.91;5095034;28;20107;-51
2022/03/01 09:12:25;;;;;;;44.03;20.77;;;;;;;5.79;75.16;102747.25;5085283;28;20439;-50
2022/03/01 09:14:51;;;;;;;39.42;20.13;;;;;;;5.79;75.55;102733.88;5082348;28;20032;-50
2022/03/01 09:17:16;;;;;;;42.97;20.30;;;;;;;5.81;75.59;102749.81;5074208;28;20031;-49
2022/03/01 09:19:41;;;;;;;42.95;20.88;;;;;;;5.73;77.24;102745.00;5074649;28;20538;-52
2022/03/01 09:22:07;;;;;;;42.05;21.63;;;;;;;5.75;77.28;102745.75;5072607;28;20480;-48
2022/03/01 09:24:32;;;;;;;45.13;21.30;;;;;;;5.82;77.26;102747.06;5074259;28;20460;-49
2022/03/01 09:27:01;;;;;;;41.53;21.65;;;;;;;5.74;77.81;102752.06;5075775;28;20423;-49
2022/03/01 09:29:27;;;;;;;40.63;20.85;;;;;;;5.73;78.11;102747.66;5057362;28;20067;-50
2022/03/01 09:31:52;;;;;;;44.85;21.92;;;;;;;5.73;78.85;102755.69;5076598;28;20357;-50
2022/03/01 09:34:18;;;;;;;47.03;22.02;;;;;;;5.73;79.01;102758.34;5081542;28;20020;-51
2022/03/01 09:36:43;;;;;;;36.92;20.20;;;;;;;5.75;79.29;102756.44;5094778;28;20039;-53
2022/03/01 09:39:08;;;;;;;45.78;21.58;;;;;;;5.76;79.56;102760.81;5091614;28;20364;-51
2022/03/01 09:41:34;;;;;;;46.20;21.38;;;;;;;5.77;79.97;102764.38;5096200;28;20028;-54
2022/03/01 09:44:01;;;;;;;48.67;21.92;;;;;;;5.69;80.89;102762.22;5081418;28;20032;-51
2022/03/01 09:46:27;;;;;;;45.75;21.20;;;;;;;5.66;81.22;102773.94;5084757;28;20464;-53
2022/03/01 09:48:52;;;;;;;46.75;23.00;;;;;;;5.52;81.45;102765.13;5089646;28;20024;-53
2022/03/01 09:51:19;;;;;;;56.38;22.83;;;;;;;5.46;82.18;102769.91;5073488;28;20024;-51
2022/03/01 09:53:47;;;;;;;49.72;24.83;;;;;;;5.43;82.85;102772.78;5079416;28;20024;-53
2022/03/01 09:56:12;;;;;;;47.45;23.70;;;;;;;5.42;83.51;102768.41;5091385;28;20430;-53
2022/03/01 09:58:39;;;;;;;46.38;23.20;;;;;;;5.37;83.35;102773.22;5089735;28;20017;-53
2022/03/01 10:01:04;;;;;;;47.65;22.83;;;;;;;5.31;83.72;102770.06;5074878;28;20067;-55
2022/03/01 10:03:29;;;;;;;45.55;22.27;;;;;;;5.21;83.69;102768.00;5084766;28;20534;-52
2022/03/01 10:06:08;;;;;;;50.50;22.67;;;;;;;5.25;84.60;102768.66;5074059;28;20474;-51
2022/03/01 10:08:33;;;;;;;47.33;23.25;;;;;;;5.10;84.12;102767.84;5081425;28;20037;-52
2022/03/01 10:10:59;;;;;;;50.70;23.48;;;;;;;5.04;84.24;102762.91;5089911;28;20031;-53
2022/03/01 10:13:27;;;;;;;47.15;23.83;;;;;;;5.14;84.58;102757.84;5084918;28;20412;-50
2022/03/01 10:16:06;;;;;;;44.08;22.45;;;;;;;5.09;84.74;102757.28;5079038;28;20032;-53
2022/03/01 10:18:37;;;;;;;54.90;24.23;;;;;;;5.04;84.84;102758.41;5079962;28;20483;-50
2022/03/01 10:21:04;;;;;;;47.90;23.23;;;;;;;5.11;85.67;102756.22;5082033;28;20384;-51
2022/03/01 10:23:29;;;;;;;48.65;22.58;;;;;;;5.15;86.06;102756.88;5084097;28;20028;-49
2022/03/01 10:25:54;;;;;;;43.65;22.48;;;;;;;5.06;85.67;102753.00;5077768;28;20026;-49
2022/03/01 10:28:38;;;;;;;51.75;24.13;;;;;;;5.22;86.05;102758.19;5081816;28;20023;-49
2022/03/01 10:31:22;;;;;;;49.65;23.58;;;;;;;5.23;86.49;102755.41;5092304;28;20035;-51
2022/03/01 10:34:05;;;;;;;50.58;23.95;;;;;;;5.42;87.12;102759.53;5072627;28;20502;-49
2022/03/01 10:36:41;;;;;;;48.28;22.73;;;;;;;5.39;86.96;102754.41;5099896;28;20046;-49
2022/03/01 10:39:09;;;;;;;47.38;23.25;;;;;;;5.35;86.43;102763.59;5113073;28;20023;-49
2022/03/01 10:41:43;;;;;;;48.45;21.70;;;;;;;5.26;85.98;102759.69;5113093;28;20024;-48
2022/03/01 10:44:18;;;;;;;46.55;21.05;;;;;;;5.23;85.34;102760.75;5080383;28;20020;-50
2022/03/01 10:46:46;;;;;;;46.90;23.17;;;;;;;5.24;85.55;102765.16;5081757;28;20429;-50
2022/03/01 10:49:17;;;;;;;48.42;22.45;;;;;;;5.09;85.28;102762.59;5079643;28;20475;-51
2022/03/01 10:51:48;;;;;;;41.97;21.92;;;;;;;5.02;85.72;102762.97;5076327;28;20024;-51
2022/03/01 10:54:40;;;;;;;43.90;22.52;;;;;;;5.09;86.21;102767.94;5073180;28;20350;-49
2022/03/01 10:57:30;;;;;;;51.88;22.92;;;;;;;5.03;85.99;102748.72;5096126;28;20060;-52
2022/03/01 10:59:55;;;;;;;45.38;21.90;;;;;;;5.21;86.84;102751.13;5078644;28;20063;-50
2022/03/01 11:02:20;;;;;;;46.45;23.05;;;;;;;5.33;86.85;102739.66;5076908;28;20028;-49
2022/03/01 11:04:47;;;;;;;43.80;22.73;;;;;;;5.67;86.97;102740.06;5079931;28;20028;-48
2022/03/01 11:07:13;;;;;;;49.85;23.02;;;;;;;5.69;84.82;102735.50;5073518;28;20033;-50
2022/03/01 11:09:39;;;;;;;49.80;23.30;;;;;;;5.86;84.81;102737.84;5075485;28;20035;-48
2022/03/01 11:12:07;;;;;;;43.63;22.58;;;;;;;5.99;83.28;102745.06;5074143;28;20075;-47